sensor_id;sensor_type;location;lat;lon;timestamp;P1;durP1;ratioP1;P2;durP2;ratioP2
40286;SDS011;25998;46.604;13.610;2023-08-01T00:02:22;5.80;;;2.42;;
40286;SDS011;25998;46.604;13.610;2023-08-01T00:05:33;5.75;;;2.83;;
40286;SDS011;25998;46.604;13.610;2023-08-01T00:08:43;6.55;;;2.60;;
40286;SDS011;25998;46.604;13.610;2023-08-01T00:11:54;3.70;;;2.33;;
40286;SDS011;25998;46.604;13.610;2023-08-01T00:15:05;4.97;;;2.55;;
40286;SDS011;25998;46.604;13.610;2023-08-01T00:18:17;7.25;;;3.00;;
40286;SDS011;25998;46.604;13.610;2023-08-01T00:21:28;5.05;;;2.40;;
40286;SDS011;25998;46.604;13.610;2023-08-01T00:24:40;4.78;;;2.80;;
40286;SDS011;25998;46.604;13.610;2023-08-01T00:27:51;3.38;;;2.60;;
40286;SDS011;25998;46.604;13.610;2023-08-01T00:31:06;6.45;;;2.97;;
40286;SDS011;25998;46.604;13.610;2023-08-01T00:34:21;4.55;;;2.50;;
40286;SDS011;25998;46.604;13.610;2023-08-01T00:37:32;5.28;;;2.70;;
40286;SDS011;25998;46.604;13.610;2023-08-01T00:40:43;6.45;;;2.60;;
40286;SDS011;25998;46.604;13.610;2023-08-01T00:43:53;4.63;;;2.33;;
40286;SDS011;25998;46.604;13.610;2023-08-01T00:47:04;3.70;;;2.58;;
40286;SDS011;25998;46.604;13.610;2023-08-01T00:50:15;3.40;;;2.50;;
40286;SDS011;25998;46.604;13.610;2023-08-01T00:53:27;5.65;;;3.00;;
40286;SDS011;25998;46.604;13.610;2023-08-01T00:56:38;3.75;;;2.42;;
40286;SDS011;25998;46.604;13.610;2023-08-01T00:59:49;4.88;;;2.50;;
40286;SDS011;25998;46.604;13.610;2023-08-01T01:03:00;5.63;;;2.38;;
40286;SDS011;25998;46.604;13.610;2023-08-01T01:09:28;5.07;;;2.50;;
40286;SDS011;25998;46.604;13.610;2023-08-01T01:12:42;3.90;;;2.70;;
40286;SDS011;25998;46.604;13.610;2023-08-01T01:15:53;4.55;;;2.33;;
40286;SDS011;25998;46.604;13.610;2023-08-01T01:19:08;4.28;;;2.55;;
40286;SDS011;25998;46.604;13.610;2023-08-01T01:22:19;5.47;;;2.25;;
40286;SDS011;25998;46.604;13.610;2023-08-01T01:25:30;5.03;;;2.67;;
40286;SDS011;25998;46.604;13.610;2023-08-01T01:28:43;4.28;;;2.35;;
40286;SDS011;25998;46.604;13.610;2023-08-01T01:31:54;3.55;;;2.55;;
40286;SDS011;25998;46.604;13.610;2023-08-01T01:35:07;3.53;;;2.45;;
40286;SDS011;25998;46.604;13.610;2023-08-01T01:38:18;5.13;;;2.45;;
40286;SDS011;25998;46.604;13.610;2023-08-01T01:41:29;5.10;;;2.53;;
40286;SDS011;25998;46.604;13.610;2023-08-01T01:44:39;6.55;;;2.60;;
40286;SDS011;25998;46.604;13.610;2023-08-01T01:47:50;4.45;;;2.53;;
40286;SDS011;25998;46.604;13.610;2023-08-01T01:51:01;4.47;;;2.90;;
40286;SDS011;25998;46.604;13.610;2023-08-01T01:54:12;3.28;;;2.67;;
40286;SDS011;25998;46.604;13.610;2023-08-01T01:57:23;5.47;;;2.88;;
40286;SDS011;25998;46.604;13.610;2023-08-01T02:00:34;4.25;;;2.70;;
40286;SDS011;25998;46.604;13.610;2023-08-01T02:03:44;3.22;;;2.70;;
40286;SDS011;25998;46.604;13.610;2023-08-01T02:06:55;7.28;;;2.65;;
40286;SDS011;25998;46.604;13.610;2023-08-01T02:10:06;5.53;;;2.88;;
40286;SDS011;25998;46.604;13.610;2023-08-01T02:13:17;6.45;;;2.80;;
40286;SDS011;25998;46.604;13.610;2023-08-01T02:16:28;3.67;;;2.42;;
40286;SDS011;25998;46.604;13.610;2023-08-01T02:19:39;4.35;;;2.53;;
40286;SDS011;25998;46.604;13.610;2023-08-01T02:22:50;7.18;;;3.28;;
40286;SDS011;25998;46.604;13.610;2023-08-01T02:26:01;4.03;;;2.60;;
40286;SDS011;25998;46.604;13.610;2023-08-01T02:29:12;3.72;;;2.67;;
40286;SDS011;25998;46.604;13.610;2023-08-01T02:32:22;4.28;;;2.92;;
40286;SDS011;25998;46.604;13.610;2023-08-01T02:35:33;5.15;;;3.05;;
40286;SDS011;25998;46.604;13.610;2023-08-01T02:38:44;5.70;;;2.80;;
40286;SDS011;25998;46.604;13.610;2023-08-01T02:41:55;4.32;;;2.72;;
40286;SDS011;25998;46.604;13.610;2023-08-01T02:45:06;7.18;;;2.50;;
40286;SDS011;25998;46.604;13.610;2023-08-01T02:48:17;6.78;;;2.50;;
40286;SDS011;25998;46.604;13.610;2023-08-01T02:51:28;5.82;;;3.03;;
40286;SDS011;25998;46.604;13.610;2023-08-01T02:54:39;6.32;;;2.90;;
40286;SDS011;25998;46.604;13.610;2023-08-01T02:57:50;4.18;;;2.53;;
40286;SDS011;25998;46.604;13.610;2023-08-01T03:01:01;5.95;;;2.63;;
40286;SDS011;25998;46.604;13.610;2023-08-01T03:04:17;4.63;;;2.75;;
40286;SDS011;25998;46.604;13.610;2023-08-01T03:07:28;4.70;;;2.85;;
40286;SDS011;25998;46.604;13.610;2023-08-01T03:10:38;4.28;;;2.60;;
40286;SDS011;25998;46.604;13.610;2023-08-01T03:13:49;3.92;;;2.70;;
40286;SDS011;25998;46.604;13.610;2023-08-01T03:17:00;3.22;;;2.53;;
40286;SDS011;25998;46.604;13.610;2023-08-01T03:20:11;7.35;;;2.80;;
40286;SDS011;25998;46.604;13.610;2023-08-01T03:23:22;4.82;;;2.65;;
40286;SDS011;25998;46.604;13.610;2023-08-01T03:26:33;4.07;;;2.95;;
40286;SDS011;25998;46.604;13.610;2023-08-01T03:29:47;6.38;;;2.97;;
40286;SDS011;25998;46.604;13.610;2023-08-01T03:32:58;5.13;;;2.95;;
40286;SDS011;25998;46.604;13.610;2023-08-01T03:36:12;7.68;;;3.33;;
40286;SDS011;25998;46.604;13.610;2023-08-01T03:39:23;7.55;;;2.90;;
40286;SDS011;25998;46.604;13.610;2023-08-01T03:42:34;7.22;;;2.80;;
40286;SDS011;25998;46.604;13.610;2023-08-01T03:45:46;5.30;;;3.00;;
40286;SDS011;25998;46.604;13.610;2023-08-01T03:48:56;4.45;;;2.67;;
40286;SDS011;25998;46.604;13.610;2023-08-01T03:52:07;5.25;;;2.90;;
40286;SDS011;25998;46.604;13.610;2023-08-01T03:55:18;5.00;;;2.58;;
40286;SDS011;25998;46.604;13.610;2023-08-01T03:58:29;6.60;;;3.30;;
40286;SDS011;25998;46.604;13.610;2023-08-01T04:01:40;3.60;;;2.83;;
40286;SDS011;25998;46.604;13.610;2023-08-01T04:04:51;4.88;;;2.50;;
40286;SDS011;25998;46.604;13.610;2023-08-01T04:08:03;3.28;;;2.80;;
40286;SDS011;25998;46.604;13.610;2023-08-01T04:11:14;3.80;;;2.70;;
40286;SDS011;25998;46.604;13.610;2023-08-01T04:14:25;8.52;;;2.90;;
40286;SDS011;25998;46.604;13.610;2023-08-01T04:17:35;5.88;;;3.17;;
40286;SDS011;25998;46.604;13.610;2023-08-01T04:20:46;5.60;;;3.10;;
40286;SDS011;25998;46.604;13.610;2023-08-01T04:23:57;5.03;;;3.13;;
40286;SDS011;25998;46.604;13.610;2023-08-01T04:27:08;3.67;;;2.53;;
40286;SDS011;25998;46.604;13.610;2023-08-01T04:30:19;6.18;;;2.95;;
40286;SDS011;25998;46.604;13.610;2023-08-01T04:33:30;4.20;;;3.00;;
40286;SDS011;25998;46.604;13.610;2023-08-01T04:36:40;5.10;;;2.88;;
40286;SDS011;25998;46.604;13.610;2023-08-01T04:39:51;4.78;;;3.13;;
40286;SDS011;25998;46.604;13.610;2023-08-01T04:43:02;4.85;;;3.00;;
40286;SDS011;25998;46.604;13.610;2023-08-01T04:46:13;5.38;;;2.80;;
40286;SDS011;25998;46.604;13.610;2023-08-01T04:49:24;5.55;;;3.20;;
40286;SDS011;25998;46.604;13.610;2023-08-01T04:52:35;7.68;;;3.85;;
40286;SDS011;25998;46.604;13.610;2023-08-01T04:55:46;6.82;;;4.32;;
40286;SDS011;25998;46.604;13.610;2023-08-01T04:58:56;7.15;;;3.67;;
40286;SDS011;25998;46.604;13.610;2023-08-01T05:02:07;7.82;;;3.75;;
40286;SDS011;25998;46.604;13.610;2023-08-01T05:05:18;5.95;;;3.60;;
40286;SDS011;25998;46.604;13.610;2023-08-01T05:08:29;7.25;;;3.20;;
40286;SDS011;25998;46.604;13.610;2023-08-01T05:11:40;5.05;;;3.35;;
40286;SDS011;25998;46.604;13.610;2023-08-01T05:14:50;6.15;;;3.60;;
40286;SDS011;25998;46.604;13.610;2023-08-01T05:18:01;6.78;;;3.55;;
40286;SDS011;25998;46.604;13.610;2023-08-01T05:21:12;5.50;;;3.17;;
40286;SDS011;25998;46.604;13.610;2023-08-01T05:24:23;4.32;;;3.25;;
40286;SDS011;25998;46.604;13.610;2023-08-01T05:27:34;6.25;;;3.20;;
40286;SDS011;25998;46.604;13.610;2023-08-01T05:30:45;6.57;;;3.03;;
40286;SDS011;25998;46.604;13.610;2023-08-01T05:33:57;5.25;;;3.55;;
40286;SDS011;25998;46.604;13.610;2023-08-01T05:37:08;6.10;;;3.30;;
40286;SDS011;25998;46.604;13.610;2023-08-01T05:40:18;5.00;;;3.30;;
40286;SDS011;25998;46.604;13.610;2023-08-01T05:43:29;5.25;;;3.40;;
40286;SDS011;25998;46.604;13.610;2023-08-01T05:46:40;3.85;;;3.10;;
40286;SDS011;25998;46.604;13.610;2023-08-01T05:49:51;8.15;;;4.03;;
40286;SDS011;25998;46.604;13.610;2023-08-01T05:53:01;3.53;;;3.20;;
40286;SDS011;25998;46.604;13.610;2023-08-01T05:56:13;3.88;;;3.30;;
40286;SDS011;25998;46.604;13.610;2023-08-01T05:59:24;3.63;;;3.20;;
40286;SDS011;25998;46.604;13.610;2023-08-01T06:02:35;3.97;;;3.22;;
40286;SDS011;25998;46.604;13.610;2023-08-01T06:05:45;4.45;;;3.70;;
40286;SDS011;25998;46.604;13.610;2023-08-01T06:08:56;7.40;;;3.67;;
40286;SDS011;25998;46.604;13.610;2023-08-01T06:12:07;5.85;;;3.40;;
40286;SDS011;25998;46.604;13.610;2023-08-01T06:15:18;4.70;;;3.42;;
40286;SDS011;25998;46.604;13.610;2023-08-01T06:18:29;7.80;;;3.88;;
40286;SDS011;25998;46.604;13.610;2023-08-01T06:21:39;5.88;;;3.88;;
40286;SDS011;25998;46.604;13.610;2023-08-01T06:24:50;5.30;;;3.80;;
40286;SDS011;25998;46.604;13.610;2023-08-01T06:28:01;5.47;;;3.80;;
40286;SDS011;25998;46.604;13.610;2023-08-01T06:31:12;4.38;;;3.65;;
40286;SDS011;25998;46.604;13.610;2023-08-01T06:34:23;7.00;;;4.22;;
40286;SDS011;25998;46.604;13.610;2023-08-01T06:37:35;6.93;;;3.55;;
40286;SDS011;25998;46.604;13.610;2023-08-01T06:40:46;7.72;;;3.60;;
40286;SDS011;25998;46.604;13.610;2023-08-01T06:43:56;5.65;;;3.13;;
40286;SDS011;25998;46.604;13.610;2023-08-01T06:47:07;3.97;;;3.13;;
40286;SDS011;25998;46.604;13.610;2023-08-01T06:50:18;9.18;;;4.00;;
40286;SDS011;25998;46.604;13.610;2023-08-01T06:53:30;6.90;;;3.60;;
40286;SDS011;25998;46.604;13.610;2023-08-01T06:56:40;5.00;;;3.50;;
40286;SDS011;25998;46.604;13.610;2023-08-01T06:59:57;6.22;;;4.00;;
40286;SDS011;25998;46.604;13.610;2023-08-01T07:03:08;5.25;;;4.18;;
40286;SDS011;25998;46.604;13.610;2023-08-01T07:06:19;12.27;;;4.32;;
40286;SDS011;25998;46.604;13.610;2023-08-01T07:09:30;7.50;;;4.55;;
40286;SDS011;25998;46.604;13.610;2023-08-01T07:12:40;6.18;;;3.90;;
40286;SDS011;25998;46.604;13.610;2023-08-01T07:15:51;5.47;;;3.83;;
40286;SDS011;25998;46.604;13.610;2023-08-01T07:19:02;5.75;;;3.33;;
40286;SDS011;25998;46.604;13.610;2023-08-01T07:22:13;5.82;;;3.90;;
40286;SDS011;25998;46.604;13.610;2023-08-01T07:25:24;4.38;;;3.42;;
40286;SDS011;25998;46.604;13.610;2023-08-01T07:28:35;5.88;;;3.28;;
40286;SDS011;25998;46.604;13.610;2023-08-01T07:31:46;4.53;;;3.10;;
40286;SDS011;25998;46.604;13.610;2023-08-01T07:34:57;4.88;;;3.63;;
40286;SDS011;25998;46.604;13.610;2023-08-01T07:38:07;5.65;;;3.55;;
40286;SDS011;25998;46.604;13.610;2023-08-01T07:41:18;4.55;;;3.58;;
40286;SDS011;25998;46.604;13.610;2023-08-01T07:44:30;5.15;;;3.28;;
40286;SDS011;25998;46.604;13.610;2023-08-01T07:47:41;4.75;;;3.25;;
40286;SDS011;25998;46.604;13.610;2023-08-01T07:50:52;3.88;;;3.47;;
40286;SDS011;25998;46.604;13.610;2023-08-01T07:54:03;4.97;;;3.58;;
40286;SDS011;25998;46.604;13.610;2023-08-01T07:57:14;5.65;;;3.75;;
40286;SDS011;25998;46.604;13.610;2023-08-01T08:00:24;5.90;;;4.00;;
40286;SDS011;25998;46.604;13.610;2023-08-01T08:03:35;6.30;;;3.92;;
40286;SDS011;25998;46.604;13.610;2023-08-01T08:06:46;5.35;;;4.18;;
40286;SDS011;25998;46.604;13.610;2023-08-01T08:09:57;4.70;;;4.18;;
40286;SDS011;25998;46.604;13.610;2023-08-01T08:13:08;5.78;;;3.80;;
40286;SDS011;25998;46.604;13.610;2023-08-01T08:16:19;7.63;;;3.92;;
40286;SDS011;25998;46.604;13.610;2023-08-01T08:19:30;4.40;;;3.60;;
40286;SDS011;25998;46.604;13.610;2023-08-01T08:22:40;5.45;;;3.60;;
40286;SDS011;25998;46.604;13.610;2023-08-01T08:25:51;6.95;;;3.70;;
40286;SDS011;25998;46.604;13.610;2023-08-01T08:29:04;4.93;;;3.40;;
40286;SDS011;25998;46.604;13.610;2023-08-01T08:32:15;4.57;;;3.70;;
40286;SDS011;25998;46.604;13.610;2023-08-01T08:35:25;5.22;;;3.55;;
40286;SDS011;25998;46.604;13.610;2023-08-01T08:38:36;4.50;;;3.58;;
40286;SDS011;25998;46.604;13.610;2023-08-01T08:41:51;6.00;;;3.85;;
40286;SDS011;25998;46.604;13.610;2023-08-01T08:45:02;4.88;;;3.35;;
40286;SDS011;25998;46.604;13.610;2023-08-01T08:48:17;4.55;;;4.00;;
40286;SDS011;25998;46.604;13.610;2023-08-01T08:51:31;6.68;;;4.03;;
40286;SDS011;25998;46.604;13.610;2023-08-01T08:54:42;6.25;;;3.83;;
40286;SDS011;25998;46.604;13.610;2023-08-01T08:57:53;7.97;;;3.72;;
40286;SDS011;25998;46.604;13.610;2023-08-01T09:01:05;9.93;;;4.28;;
40286;SDS011;25998;46.604;13.610;2023-08-01T09:04:18;5.35;;;4.20;;
40286;SDS011;25998;46.604;13.610;2023-08-01T09:07:29;8.35;;;4.30;;
40286;SDS011;25998;46.604;13.610;2023-08-01T09:10:43;7.25;;;4.18;;
40286;SDS011;25998;46.604;13.610;2023-08-01T09:13:54;5.38;;;4.13;;
40286;SDS011;25998;46.604;13.610;2023-08-01T09:17:06;7.25;;;4.65;;
40286;SDS011;25998;46.604;13.610;2023-08-01T09:20:18;8.90;;;4.32;;
40286;SDS011;25998;46.604;13.610;2023-08-01T09:23:29;6.22;;;3.97;;
40286;SDS011;25998;46.604;13.610;2023-08-01T09:26:40;5.10;;;3.53;;
40286;SDS011;25998;46.604;13.610;2023-08-01T09:29:52;7.35;;;4.20;;
40286;SDS011;25998;46.604;13.610;2023-08-01T09:33:03;6.07;;;4.05;;
40286;SDS011;25998;46.604;13.610;2023-08-01T09:36:20;5.35;;;3.50;;
40286;SDS011;25998;46.604;13.610;2023-08-01T09:39:33;8.57;;;3.75;;
40286;SDS011;25998;46.604;13.610;2023-08-01T09:42:44;5.57;;;4.15;;
40286;SDS011;25998;46.604;13.610;2023-08-01T09:45:55;4.30;;;3.78;;
40286;SDS011;25998;46.604;13.610;2023-08-01T09:49:10;6.47;;;3.92;;
40286;SDS011;25998;46.604;13.610;2023-08-01T09:52:31;4.95;;;3.67;;
40286;SDS011;25998;46.604;13.610;2023-08-01T09:55:43;5.45;;;4.05;;
40286;SDS011;25998;46.604;13.610;2023-08-01T09:58:56;6.78;;;3.70;;
40286;SDS011;25998;46.604;13.610;2023-08-01T10:02:09;4.45;;;3.80;;
40286;SDS011;25998;46.604;13.610;2023-08-01T10:05:26;6.32;;;3.95;;
40286;SDS011;25998;46.604;13.610;2023-08-01T10:08:41;5.07;;;3.50;;
40286;SDS011;25998;46.604;13.610;2023-08-01T10:11:53;6.88;;;4.55;;
40286;SDS011;25998;46.604;13.610;2023-08-01T10:15:06;4.70;;;4.20;;
40286;SDS011;25998;46.604;13.610;2023-08-01T10:18:18;5.18;;;4.28;;
40286;SDS011;25998;46.604;13.610;2023-08-01T10:21:29;5.60;;;4.30;;
40286;SDS011;25998;46.604;13.610;2023-08-01T10:24:40;5.18;;;4.50;;
40286;SDS011;25998;46.604;13.610;2023-08-01T10:27:59;4.53;;;4.10;;
40286;SDS011;25998;46.604;13.610;2023-08-01T10:31:14;8.10;;;4.60;;
40286;SDS011;25998;46.604;13.610;2023-08-01T10:34:26;5.13;;;4.63;;
40286;SDS011;25998;46.604;13.610;2023-08-01T10:37:41;5.55;;;4.57;;
40286;SDS011;25998;46.604;13.610;2023-08-01T10:40:52;7.40;;;4.95;;
40286;SDS011;25998;46.604;13.610;2023-08-01T10:47:26;7.80;;;4.63;;
40286;SDS011;25998;46.604;13.610;2023-08-01T10:50:37;5.30;;;4.07;;
40286;SDS011;25998;46.604;13.610;2023-08-01T10:53:48;7.72;;;4.47;;
40286;SDS011;25998;46.604;13.610;2023-08-01T10:56:59;7.40;;;4.15;;
40286;SDS011;25998;46.604;13.610;2023-08-01T11:00:14;6.50;;;4.75;;
40286;SDS011;25998;46.604;13.610;2023-08-01T11:03:33;7.82;;;5.45;;
40286;SDS011;25998;46.604;13.610;2023-08-01T11:06:49;6.00;;;5.50;;
40286;SDS011;25998;46.604;13.610;2023-08-01T11:10:05;6.15;;;5.55;;
40286;SDS011;25998;46.604;13.610;2023-08-01T11:13:16;7.03;;;5.85;;
40286;SDS011;25998;46.604;13.610;2023-08-01T11:16:27;8.25;;;5.28;;
40286;SDS011;25998;46.604;13.610;2023-08-01T11:19:38;6.63;;;6.03;;
40286;SDS011;25998;46.604;13.610;2023-08-01T11:22:58;7.88;;;6.43;;
40286;SDS011;25998;46.604;13.610;2023-08-01T11:26:10;7.75;;;6.60;;
40286;SDS011;25998;46.604;13.610;2023-08-01T11:29:21;6.97;;;5.90;;
40286;SDS011;25998;46.604;13.610;2023-08-01T11:32:36;6.75;;;5.78;;
40286;SDS011;25998;46.604;13.610;2023-08-01T11:35:51;6.50;;;5.90;;
40286;SDS011;25998;46.604;13.610;2023-08-01T11:39:10;6.30;;;4.63;;
40286;SDS011;25998;46.604;13.610;2023-08-01T11:42:21;5.63;;;5.13;;
40286;SDS011;25998;46.604;13.610;2023-08-01T11:45:31;6.15;;;4.50;;
40286;SDS011;25998;46.604;13.610;2023-08-01T11:48:45;5.10;;;4.60;;
40286;SDS011;25998;46.604;13.610;2023-08-01T11:51:57;5.97;;;4.20;;
40286;SDS011;25998;46.604;13.610;2023-08-01T11:55:17;6.78;;;6.05;;
40286;SDS011;25998;46.604;13.610;2023-08-01T11:58:33;5.30;;;4.80;;
40286;SDS011;25998;46.604;13.610;2023-08-01T12:01:46;6.60;;;5.32;;
40286;SDS011;25998;46.604;13.610;2023-08-01T12:04:58;6.25;;;5.65;;
40286;SDS011;25998;46.604;13.610;2023-08-01T12:08:10;6.75;;;6.05;;
40286;SDS011;25998;46.604;13.610;2023-08-01T12:14:34;7.45;;;5.72;;
40286;SDS011;25998;46.604;13.610;2023-08-01T12:17:50;5.97;;;5.40;;
40286;SDS011;25998;46.604;13.610;2023-08-01T12:21:01;8.07;;;6.18;;
40286;SDS011;25998;46.604;13.610;2023-08-01T12:24:11;7.35;;;5.82;;
40286;SDS011;25998;46.604;13.610;2023-08-01T12:27:22;8.13;;;6.30;;
40286;SDS011;25998;46.604;13.610;2023-08-01T12:30:34;6.90;;;5.65;;
40286;SDS011;25998;46.604;13.610;2023-08-01T12:33:45;6.50;;;5.88;;
40286;SDS011;25998;46.604;13.610;2023-08-01T12:36:56;6.03;;;5.43;;
40286;SDS011;25998;46.604;13.610;2023-08-01T12:40:07;5.80;;;5.30;;
40286;SDS011;25998;46.604;13.610;2023-08-01T12:43:18;5.63;;;5.13;;
40286;SDS011;25998;46.604;13.610;2023-08-01T12:46:29;4.88;;;4.47;;
40286;SDS011;25998;46.604;13.610;2023-08-01T12:49:40;6.40;;;5.80;;
40286;SDS011;25998;46.604;13.610;2023-08-01T12:52:51;6.15;;;5.63;;
40286;SDS011;25998;46.604;13.610;2023-08-01T12:56:01;6.75;;;5.15;;
40286;SDS011;25998;46.604;13.610;2023-08-01T12:59:13;5.68;;;5.13;;
40286;SDS011;25998;46.604;13.610;2023-08-01T13:02:24;6.15;;;4.72;;
40286;SDS011;25998;46.604;13.610;2023-08-01T13:05:36;5.25;;;4.78;;
40286;SDS011;25998;46.604;13.610;2023-08-01T13:08:48;5.78;;;5.18;;
40286;SDS011;25998;46.604;13.610;2023-08-01T13:11:59;6.10;;;5.50;;
40286;SDS011;25998;46.604;13.610;2023-08-01T13:15:10;6.60;;;5.72;;
40286;SDS011;25998;46.604;13.610;2023-08-01T13:18:21;6.68;;;5.88;;
40286;SDS011;25998;46.604;13.610;2023-08-01T13:21:31;6.15;;;5.55;;
40286;SDS011;25998;46.604;13.610;2023-08-01T13:24:45;6.38;;;5.75;;
40286;SDS011;25998;46.604;13.610;2023-08-01T13:27:57;6.65;;;5.95;;
40286;SDS011;25998;46.604;13.610;2023-08-01T13:31:08;6.55;;;5.28;;
40286;SDS011;25998;46.604;13.610;2023-08-01T13:34:18;6.03;;;5.05;;
40286;SDS011;25998;46.604;13.610;2023-08-01T13:37:29;5.85;;;5.30;;
40286;SDS011;25998;46.604;13.610;2023-08-01T13:40:40;6.30;;;4.82;;
40286;SDS011;25998;46.604;13.610;2023-08-01T13:43:51;13.07;;;5.50;;
40286;SDS011;25998;46.604;13.610;2023-08-01T13:47:02;8.07;;;5.20;;
40286;SDS011;25998;46.604;13.610;2023-08-01T13:50:14;9.90;;;4.70;;
40286;SDS011;25998;46.604;13.610;2023-08-01T13:53:24;5.50;;;4.20;;
40286;SDS011;25998;46.604;13.610;2023-08-01T13:56:35;7.40;;;4.30;;
40286;SDS011;25998;46.604;13.610;2023-08-01T13:59:46;4.80;;;4.30;;
40286;SDS011;25998;46.604;13.610;2023-08-01T14:02:57;9.35;;;4.85;;
40286;SDS011;25998;46.604;13.610;2023-08-01T14:06:10;10.38;;;4.72;;
40286;SDS011;25998;46.604;13.610;2023-08-01T14:09:22;8.48;;;2.10;;
40286;SDS011;25998;46.604;13.610;2023-08-01T14:12:33;2.10;;;1.30;;
40286;SDS011;25998;46.604;13.610;2023-08-01T14:15:44;5.93;;;1.65;;
40286;SDS011;25998;46.604;13.610;2023-08-01T14:18:55;2.17;;;0.90;;
40286;SDS011;25998;46.604;13.610;2023-08-01T14:22:06;1.52;;;0.85;;
40286;SDS011;25998;46.604;13.610;2023-08-01T14:25:16;1.40;;;0.88;;
40286;SDS011;25998;46.604;13.610;2023-08-01T14:28:27;0.57;;;0.50;;
40286;SDS011;25998;46.604;13.610;2023-08-01T14:31:38;1.35;;;0.80;;
40286;SDS011;25998;46.604;13.610;2023-08-01T14:34:49;2.50;;;1.10;;
40286;SDS011;25998;46.604;13.610;2023-08-01T14:38:01;1.05;;;0.63;;
40286;SDS011;25998;46.604;13.610;2023-08-01T14:41:12;3.22;;;0.52;;
40286;SDS011;25998;46.604;13.610;2023-08-01T14:44:25;0.93;;;0.43;;
40286;SDS011;25998;46.604;13.610;2023-08-01T14:47:36;3.88;;;0.80;;
40286;SDS011;25998;46.604;13.610;2023-08-01T14:50:47;1.02;;;0.60;;
40286;SDS011;25998;46.604;13.610;2023-08-01T14:53:58;2.22;;;0.50;;
40286;SDS011;25998;46.604;13.610;2023-08-01T14:57:09;2.90;;;0.75;;
40286;SDS011;25998;46.604;13.610;2023-08-01T15:00:20;1.10;;;0.60;;
40286;SDS011;25998;46.604;13.610;2023-08-01T15:03:31;1.05;;;0.50;;
40286;SDS011;25998;46.604;13.610;2023-08-01T15:06:42;1.55;;;0.70;;
40286;SDS011;25998;46.604;13.610;2023-08-01T15:18:15;1.30;;;0.45;;
40286;SDS011;25998;46.604;13.610;2023-08-01T15:21:26;2.85;;;0.80;;
40286;SDS011;25998;46.604;13.610;2023-08-01T15:24:38;3.83;;;0.95;;
40286;SDS011;25998;46.604;13.610;2023-08-01T15:27:49;6.20;;;1.50;;
40286;SDS011;25998;46.604;13.610;2023-08-01T15:31:06;5.25;;;1.20;;
40286;SDS011;25998;46.604;13.610;2023-08-01T15:34:19;5.82;;;1.58;;
40286;SDS011;25998;46.604;13.610;2023-08-01T15:37:32;4.50;;;1.60;;
40286;SDS011;25998;46.604;13.610;2023-08-01T15:40:43;4.53;;;1.05;;
40286;SDS011;25998;46.604;13.610;2023-08-01T15:43:54;3.83;;;1.25;;
40286;SDS011;25998;46.604;13.610;2023-08-01T15:47:05;2.38;;;1.13;;
40286;SDS011;25998;46.604;13.610;2023-08-01T15:50:15;3.67;;;1.20;;
40286;SDS011;25998;46.604;13.610;2023-08-01T15:53:26;3.85;;;1.05;;
40286;SDS011;25998;46.604;13.610;2023-08-01T15:56:39;7.15;;;1.80;;
40286;SDS011;25998;46.604;13.610;2023-08-01T15:59:51;4.38;;;1.45;;
40286;SDS011;25998;46.604;13.610;2023-08-01T16:03:02;4.68;;;1.30;;
40286;SDS011;25998;46.604;13.610;2023-08-01T16:06:14;2.72;;;1.17;;
40286;SDS011;25998;46.604;13.610;2023-08-01T16:09:25;2.92;;;1.27;;
40286;SDS011;25998;46.604;13.610;2023-08-01T16:12:36;4.22;;;1.27;;
40286;SDS011;25998;46.604;13.610;2023-08-01T16:15:47;3.20;;;1.20;;
40286;SDS011;25998;46.604;13.610;2023-08-01T16:18:59;3.17;;;1.20;;
40286;SDS011;25998;46.604;13.610;2023-08-01T16:22:10;4.32;;;1.40;;
40286;SDS011;25998;46.604;13.610;2023-08-01T16:25:21;4.07;;;1.58;;
40286;SDS011;25998;46.604;13.610;2023-08-01T16:28:32;3.70;;;1.30;;
40286;SDS011;25998;46.604;13.610;2023-08-01T16:31:43;1.83;;;1.13;;
40286;SDS011;25998;46.604;13.610;2023-08-01T16:34:54;3.38;;;1.40;;
40286;SDS011;25998;46.604;13.610;2023-08-01T16:38:05;2.65;;;1.30;;
40286;SDS011;25998;46.604;13.610;2023-08-01T16:41:15;3.35;;;1.23;;
40286;SDS011;25998;46.604;13.610;2023-08-01T16:44:31;2.83;;;1.23;;
40286;SDS011;25998;46.604;13.610;2023-08-01T16:47:42;2.65;;;1.45;;
40286;SDS011;25998;46.604;13.610;2023-08-01T16:50:53;2.88;;;1.40;;
40286;SDS011;25998;46.604;13.610;2023-08-01T16:54:04;1.90;;;1.15;;
40286;SDS011;25998;46.604;13.610;2023-08-01T16:57:14;4.13;;;1.27;;
40286;SDS011;25998;46.604;13.610;2023-08-01T17:00:25;3.60;;;1.65;;
40286;SDS011;25998;46.604;13.610;2023-08-01T17:03:36;7.75;;;2.17;;
40286;SDS011;25998;46.604;13.610;2023-08-01T17:06:47;5.32;;;1.77;;
40286;SDS011;25998;46.604;13.610;2023-08-01T17:10:01;4.60;;;1.95;;
40286;SDS011;25998;46.604;13.610;2023-08-01T17:13:14;5.00;;;1.75;;
40286;SDS011;25998;46.604;13.610;2023-08-01T17:16:26;3.78;;;1.73;;
40286;SDS011;25998;46.604;13.610;2023-08-01T17:19:36;2.90;;;1.67;;
40286;SDS011;25998;46.604;13.610;2023-08-01T17:22:47;3.10;;;1.60;;
40286;SDS011;25998;46.604;13.610;2023-08-01T17:25:58;2.63;;;1.30;;
40286;SDS011;25998;46.604;13.610;2023-08-01T17:29:09;4.57;;;1.45;;
40286;SDS011;25998;46.604;13.610;2023-08-01T17:32:20;2.45;;;1.00;;
40286;SDS011;25998;46.604;13.610;2023-08-01T17:35:31;1.85;;;1.00;;
40286;SDS011;25998;46.604;13.610;2023-08-01T17:38:42;2.03;;;1.08;;
40286;SDS011;25998;46.604;13.610;2023-08-01T17:41:53;3.85;;;1.30;;
40286;SDS011;25998;46.604;13.610;2023-08-01T17:45:06;4.20;;;1.10;;
40286;SDS011;25998;46.604;13.610;2023-08-01T17:48:20;1.48;;;0.75;;
40286;SDS011;25998;46.604;13.610;2023-08-01T17:51:30;1.52;;;0.75;;
40286;SDS011;25998;46.604;13.610;2023-08-01T17:54:41;5.13;;;1.00;;
40286;SDS011;25998;46.604;13.610;2023-08-01T17:57:52;2.53;;;1.38;;
40286;SDS011;25998;46.604;13.610;2023-08-01T18:01:03;2.72;;;1.40;;
40286;SDS011;25998;46.604;13.610;2023-08-01T18:04:16;2.58;;;1.60;;
40286;SDS011;25998;46.604;13.610;2023-08-01T18:07:27;2.78;;;2.20;;
40286;SDS011;25998;46.604;13.610;2023-08-01T18:10:39;3.92;;;1.65;;
40286;SDS011;25998;46.604;13.610;2023-08-01T18:13:50;2.38;;;1.35;;
40286;SDS011;25998;46.604;13.610;2023-08-01T18:17:01;3.45;;;1.92;;
40286;SDS011;25998;46.604;13.610;2023-08-01T18:20:12;2.30;;;1.70;;
40286;SDS011;25998;46.604;13.610;2023-08-01T18:23:23;2.38;;;1.80;;
40286;SDS011;25998;46.604;13.610;2023-08-01T18:26:34;3.75;;;2.00;;
40286;SDS011;25998;46.604;13.610;2023-08-01T18:29:46;2.45;;;1.50;;
40286;SDS011;25998;46.604;13.610;2023-08-01T18:32:57;3.70;;;1.73;;
40286;SDS011;25998;46.604;13.610;2023-08-01T18:36:11;2.50;;;1.45;;
40286;SDS011;25998;46.604;13.610;2023-08-01T18:39:24;2.65;;;1.48;;
40286;SDS011;25998;46.604;13.610;2023-08-01T18:42:35;7.18;;;1.83;;
40286;SDS011;25998;46.604;13.610;2023-08-01T18:45:53;3.05;;;1.25;;
40286;SDS011;25998;46.604;13.610;2023-08-01T18:49:04;2.42;;;1.20;;
40286;SDS011;25998;46.604;13.610;2023-08-01T18:52:15;2.70;;;1.13;;
40286;SDS011;25998;46.604;13.610;2023-08-01T18:55:26;1.48;;;0.88;;
40286;SDS011;25998;46.604;13.610;2023-08-01T18:58:37;1.77;;;1.20;;
40286;SDS011;25998;46.604;13.610;2023-08-01T19:01:49;1.85;;;1.25;;
40286;SDS011;25998;46.604;13.610;2023-08-01T19:05:04;2.08;;;1.20;;
40286;SDS011;25998;46.604;13.610;2023-08-01T19:08:16;2.08;;;1.20;;
40286;SDS011;25998;46.604;13.610;2023-08-01T19:11:27;1.95;;;1.20;;
40286;SDS011;25998;46.604;13.610;2023-08-01T19:14:40;2.10;;;1.20;;